createdAt,value
2019-04-03T00:01:26.789Z,16
2019-04-03T00:06:28.897Z,16
2019-04-03T00:11:31.322Z,17
2019-04-03T00:16:33.792Z,16
2019-04-03T00:21:36.292Z,15
2019-04-03T00:26:38.784Z,17
2019-04-03T00:31:41.511Z,19
2019-04-03T00:36:43.635Z,16
2019-04-03T00:41:46.073Z,16
2019-04-03T00:46:48.576Z,18
2019-04-03T00:51:51.074Z,17
2019-04-03T00:56:56.079Z,18
2019-04-03T01:01:56.443Z,18
2019-04-03T01:06:59.021Z,17
2019-04-03T01:12:01.223Z,20
2019-04-03T01:17:04.306Z,17
2019-04-03T01:22:07.709Z,17
2019-04-03T01:27:08.218Z,17
2019-04-03T01:32:10.951Z,16
2019-04-03T01:37:13.100Z,15
2019-04-03T01:42:15.558Z,15
2019-04-03T01:47:18.011Z,15
2019-04-03T01:52:20.469Z,15
2019-04-03T01:57:22.945Z,14
2019-04-03T02:02:25.805Z,15
2019-04-03T02:07:27.916Z,15
2019-04-03T02:12:30.318Z,13
2019-04-03T02:17:32.753Z,14
2019-04-03T02:22:35.456Z,15
2019-04-03T02:27:37.846Z,15
2019-04-03T02:32:40.499Z,15
2019-04-03T02:37:43.033Z,18
2019-04-03T02:42:45.059Z,15
2019-04-03T02:47:47.572Z,16
2019-04-03T02:52:49.968Z,15
2019-04-03T02:57:52.420Z,15
2019-04-03T03:02:55.181Z,13
2019-04-03T03:07:57.550Z,15
2019-04-03T03:13:01.501Z,12
2019-04-03T03:18:02.580Z,16
2019-04-03T03:23:04.812Z,16
2019-04-03T03:28:07.307Z,15
2019-04-03T03:33:26.268Z,15
2019-04-03T03:38:12.091Z,17
2019-04-03T03:43:14.533Z,17
2019-04-03T03:48:17.380Z,16
2019-04-03T03:53:19.507Z,15
2019-04-03T03:58:22.242Z,17
2019-04-03T04:03:24.887Z,17
2019-04-03T04:08:26.838Z,18
2019-04-03T04:13:29.341Z,18
2019-04-03T04:18:31.801Z,20
2019-04-03T04:23:34.195Z,24
2019-04-03T04:28:39.185Z,19
2019-04-03T04:33:39.187Z,19
2019-04-03T04:38:41.735Z,18
2019-04-03T04:43:44.238Z,17
2019-04-03T04:48:46.560Z,17
2019-04-03T04:53:48.999Z,17
2019-04-03T04:58:51.465Z,18
2019-04-03T05:03:54.551Z,19
2019-04-03T05:08:56.344Z,18
2019-04-03T05:13:58.775Z,17
2019-04-03T05:19:09.231Z,18
2019-04-03T05:24:11.338Z,19
2019-04-03T05:29:06.372Z,18
2019-04-03T05:34:08.688Z,19
2019-04-03T05:39:11.092Z,19
2019-04-03T05:44:13.519Z,18
2019-04-03T05:49:18.416Z,18
2019-04-03T05:54:18.503Z,17
2019-04-03T05:59:21.234Z,18
2019-04-03T06:04:23.636Z,18
2019-04-03T06:09:25.803Z,18
2019-04-03T06:14:28.263Z,16
2019-04-03T06:19:30.777Z,17
2019-04-03T06:24:33.166Z,14
2019-04-03T06:29:35.926Z,17
2019-04-03T06:34:40.526Z,17
2019-04-03T06:39:40.529Z,17
2019-04-03T06:44:42.982Z,16
2019-04-03T06:54:47.999Z,15
2019-04-03T06:59:50.408Z,14
2019-04-03T07:04:52.820Z,14
2019-04-03T07:09:55.295Z,14
2019-04-03T07:14:57.962Z,15
2019-04-03T07:20:12.291Z,14
2019-04-03T07:25:03.771Z,14
2019-04-03T07:30:05.199Z,14
2019-04-03T07:35:09.697Z,14
2019-04-03T07:40:10.133Z,15
2019-04-03T07:45:12.511Z,13
2019-04-03T07:50:15.031Z,14
2019-04-03T07:55:17.532Z,14
2019-04-03T08:00:19.867Z,13
2019-04-03T08:05:22.313Z,13
2019-04-03T08:10:24.824Z,14
2019-04-03T08:15:27.361Z,13
2019-04-03T08:20:31.008Z,13
2019-04-03T08:25:32.181Z,13
2019-04-03T08:30:34.660Z,14
2019-04-03T08:35:37.394Z,14
2019-04-03T08:40:39.614Z,14
2019-04-03T08:45:42.022Z,12
2019-04-03T08:50:44.501Z,13
2019-04-03T08:55:47.105Z,13
2019-04-03T09:05:55.466Z,13
2019-04-03T09:10:54.712Z,14
2019-04-03T09:15:58.590Z,13
2019-04-03T09:20:59.213Z,13
2019-04-03T09:26:03.020Z,14
2019-04-03T09:31:04.146Z,15
2019-04-03T09:36:06.586Z,14
2019-04-03T09:41:09.327Z,13
2019-04-03T09:46:11.499Z,14
2019-04-03T09:51:14.237Z,13
2019-04-03T09:56:16.489Z,13
2019-04-03T10:01:19.094Z,12
2019-04-03T10:06:21.534Z,13
2019-04-03T10:11:23.814Z,13
2019-04-03T10:16:26.328Z,14
2019-04-03T10:21:28.903Z,13
2019-04-03T10:26:31.825Z,13
2019-04-03T10:31:33.681Z,13
2019-04-03T10:36:36.483Z,13
2019-04-03T10:41:38.849Z,13
2019-04-03T10:51:43.924Z,13
2019-04-03T10:56:46.221Z,15
2019-04-03T11:01:48.422Z,14
2019-04-03T11:06:51.033Z,14
2019-04-03T11:11:53.324Z,14
2019-04-03T11:21:58.388Z,14
2019-04-03T11:27:00.751Z,14
2019-04-03T11:32:03.156Z,13
2019-04-03T11:37:06.347Z,14
2019-04-03T11:42:08.048Z,14
2019-04-03T11:52:13.076Z,14
2019-04-03T11:57:16.437Z,14
2019-04-03T12:02:18.100Z,13
2019-04-03T12:07:20.477Z,15
2019-04-03T12:17:25.287Z,13
2019-04-03T12:22:27.733Z,13
2019-04-03T12:27:30.325Z,13
2019-04-03T12:32:38.338Z,12
2019-04-03T12:37:35.140Z,11
2019-04-03T12:42:37.924Z,10
2019-04-03T12:47:42.766Z,10
2019-04-03T12:52:44.372Z,10
2019-04-03T12:57:45.174Z,13
2019-04-03T13:02:47.434Z,11
2019-04-03T13:07:50.149Z,10
2019-04-03T13:12:54.574Z,11
2019-04-03T13:17:54.781Z,11
2019-04-03T13:22:57.325Z,12
2019-04-03T13:28:02.672Z,11
2019-04-03T13:33:05.609Z,10
2019-04-03T13:38:04.631Z,10
2019-04-03T13:43:07.266Z,11
2019-04-03T13:48:11.973Z,9
2019-04-03T13:53:12.010Z,10
2019-04-03T13:58:14.512Z,9
2019-04-03T14:03:18.055Z,10
2019-04-03T14:08:19.892Z,11
2019-04-03T14:13:22.029Z,11
2019-04-03T14:18:24.381Z,12
2019-04-03T14:23:27.071Z,11
2019-04-03T14:28:29.184Z,11
2019-04-03T14:33:41.522Z,11
2019-04-03T14:38:34.466Z,13
2019-04-03T14:43:36.580Z,10
2019-04-03T14:48:39.416Z,12
2019-04-03T14:53:41.485Z,11
2019-04-03T14:58:44.014Z,11
2019-04-03T15:03:46.781Z,12
2019-04-03T15:08:49.216Z,13
2019-04-03T15:13:51.589Z,12
2019-04-03T15:18:53.864Z,12
2019-04-03T15:23:56.568Z,12
2019-04-03T15:28:59.923Z,13
2019-04-03T15:34:01.637Z,12
2019-04-03T15:39:03.667Z,14
2019-04-03T15:44:06.106Z,13
2019-04-03T15:49:08.889Z,13
2019-04-03T15:54:11.283Z,12
2019-04-03T15:59:13.727Z,13
2019-04-03T16:04:16.176Z,12
2019-04-03T16:09:19.491Z,14
2019-04-03T16:14:20.998Z,15
2019-04-03T16:19:23.495Z,14
2019-04-03T16:24:25.805Z,15
2019-04-03T16:29:30.148Z,14
2019-04-03T16:34:30.698Z,13
2019-04-03T16:39:33.696Z,14
2019-04-03T16:44:35.632Z,17
2019-04-03T16:49:38.061Z,15
2019-04-03T16:54:43.060Z,16
2019-04-03T16:59:43.083Z,14
2019-04-03T17:04:45.773Z,15
2019-04-03T17:09:48.193Z,15
2019-04-03T17:14:50.396Z,14
2019-04-03T17:19:52.796Z,14
2019-04-03T17:24:56.347Z,14
2019-04-03T17:29:57.867Z,15
2019-04-03T17:35:00.290Z,13
2019-04-03T17:40:04.033Z,13
2019-04-03T17:45:05.113Z,14
2019-04-03T17:50:07.523Z,17
2019-04-03T17:55:10.820Z,15
2019-04-03T18:00:12.606Z,17
2019-04-03T18:05:14.895Z,15
2019-04-03T18:10:17.368Z,16
2019-04-03T18:15:19.838Z,13
2019-04-03T18:20:22.251Z,15
2019-04-03T18:25:24.742Z,15
2019-04-03T18:30:27.167Z,15
2019-04-03T18:35:29.658Z,14
2019-04-03T18:40:32.180Z,14
2019-04-03T18:45:34.595Z,15
2019-04-03T18:50:37.014Z,15
2019-04-03T18:55:39.547Z,16
2019-04-03T19:00:41.947Z,15
2019-04-03T19:05:44.426Z,15
2019-04-03T19:10:46.930Z,16
2019-04-03T19:15:49.313Z,15
2019-04-03T19:20:51.819Z,18
2019-04-03T19:25:54.322Z,16
2019-04-03T19:30:56.671Z,15
2019-04-03T19:35:59.337Z,16
2019-04-03T19:41:01.676Z,15
2019-04-03T19:46:04.052Z,15
2019-04-03T19:51:06.533Z,13
2019-04-03T19:56:08.975Z,15
2019-04-03T20:01:11.442Z,16
2019-04-03T20:06:13.881Z,16
2019-04-03T20:11:16.437Z,13
2019-04-03T20:16:18.805Z,15
2019-04-03T20:21:21.333Z,15
2019-04-03T20:26:23.714Z,15
2019-04-03T20:31:26.152Z,16
2019-04-03T20:36:28.619Z,15
2019-04-03T20:41:31.087Z,14
2019-04-03T20:46:33.573Z,13
2019-04-03T20:51:36.009Z,15
2019-04-03T20:56:38.533Z,16
2019-04-03T21:01:40.977Z,13
2019-04-03T21:06:43.374Z,13
2019-04-03T21:11:45.920Z,16
2019-04-03T21:16:48.481Z,14
2019-04-03T21:21:50.745Z,14
2019-04-03T21:26:53.260Z,13
2019-04-03T21:31:56.690Z,11
2019-04-03T21:36:58.223Z,14
2019-04-03T21:42:00.706Z,15
2019-04-03T21:47:03.314Z,12
2019-04-03T21:52:05.550Z,14
2019-04-03T21:57:07.958Z,15
2019-04-03T22:02:10.422Z,10
2019-04-03T22:07:12.859Z,10
2019-04-03T22:12:15.329Z,13
2019-04-03T22:17:18.056Z,16
2019-04-03T22:22:20.326Z,13
2019-04-03T22:27:22.746Z,13
2019-04-03T22:32:25.351Z,13
2019-04-03T22:37:27.630Z,14
2019-04-03T22:42:30.087Z,15
2019-04-03T22:47:32.807Z,14
2019-04-03T22:52:35.013Z,12
2019-04-03T22:57:37.559Z,14
2019-04-03T23:02:39.889Z,13
2019-04-03T23:07:42.347Z,12
2019-04-03T23:12:44.909Z,14
2019-04-03T23:17:47.267Z,12
2019-04-03T23:22:49.729Z,15
2019-04-03T23:27:52.212Z,14
2019-04-03T23:32:54.679Z,12
2019-04-03T23:37:57.102Z,14
2019-04-03T23:42:59.612Z,13
2019-04-03T23:48:02.005Z,14
2019-04-03T23:53:04.557Z,15
2019-04-03T23:58:07.046Z,15
